Time;durP1;ratioP1;P1;durP2;ratioP2;P2;SDS_P1;SDS_P2;PMS_P1;PMS_P2;Temp;Humidity;BMP_temperature;BMP_pressure;BME280_temperature;BME280_humidity;BME280_pressure;Samples;Min_cycle;Max_cycle;Signal;HPM_P1;HPM_P2
2023/11/15 00:01:22;;;;;;;3.40;1.30;;;;;;;9.14;67.35;99142.98;106178;1256;64874;-52
2023/11/15 00:03:49;;;;;;;8.30;3.50;;;;;;;9.16;67.22;99139.10;106064;1253;61531;-52
2023/11/15 00:06:16;;;;;;;8.30;3.90;;;;;;;9.15;67.31;99138.17;105370;1253;63805;-54
2023/11/15 00:08:43;;;;;;;10.20;3.80;;;;;;;9.13;67.26;99138.52;105407;1253;60083;-55
2023/11/15 00:11:10;;;;;;;9.30;1.70;;;;;;;9.11;67.28;99144.47;105817;1253;59727;-54
2023/11/15 00:13:37;;;;;;;8.20;3.90;;;;;;;9.11;67.28;99150.56;105710;1253;63130;-53
2023/11/15 00:16:05;;;;;;;9.90;4.80;;;;;;;9.13;67.10;99147.27;105351;1253;61688;-53
2023/11/15 00:18:32;;;;;;;7.60;2.00;;;;;;;9.14;67.13;99146.34;106151;1253;62545;-55
2023/11/15 00:20:59;;;;;;;9.80;4.10;;;;;;;9.10;67.17;99146.80;105978;1252;60021;-55
2023/11/15 00:23:26;;;;;;;10.20;4.80;;;;;;;9.05;67.17;99148.31;105931;1253;59612;-55
2023/11/15 00:25:53;;;;;;;8.00;2.70;;;;;;;9.01;67.23;99146.79;105505;1254;64073;-55
2023/11/15 00:28:20;;;;;;;9.20;4.30;;;;;;;9.02;67.23;99146.04;105470;1253;60473;-56
2023/11/15 00:30:47;;;;;;;5.30;1.40;;;;;;;9.06;67.10;99147.58;106445;1253;63945;-55
2023/11/15 00:33:13;;;;;;;10.40;4.00;;;;;;;9.11;67.04;99147.49;106092;1253;60361;-55
2023/11/15 00:35:40;;;;;;;7.80;3.20;;;;;;;9.12;66.98;99142.80;106214;1253;60527;-56
2023/11/15 00:38:08;;;;;;;6.00;1.70;;;;;;;9.10;67.00;99142.48;106432;1253;63719;-53
2023/11/15 00:40:35;;;;;;;7.90;3.50;;;;;;;9.07;67.07;99143.47;105585;1253;62156;-56
2023/11/15 00:43:03;;;;;;;6.50;2.10;;;;;;;9.05;67.06;99138.62;106527;1253;63324;-54
2023/11/15 00:45:30;;;;;;;9.90;3.50;;;;;;;9.06;66.99;99133.73;105973;1253;60954;-55
2023/11/15 00:47:57;;;;;;;8.30;3.30;;;;;;;9.08;66.81;99132.48;105355;1254;60885;-54
2023/11/15 00:50:24;;;;;;;10.30;3.80;;;;;;;9.08;66.83;99127.29;105663;1257;65215;-53
2023/11/15 00:52:51;;;;;;;7.10;2.50;;;;;;;9.05;66.80;99127.05;105842;1253;61564;-54
2023/11/15 00:55:18;;;;;;;11.70;4.30;;;;;;;9.00;66.84;99121.73;105984;1253;62795;-54
2023/11/15 00:57:45;;;;;;;4.60;1.40;;;;;;;8.96;66.91;99118.93;105708;1255;60542;-55
2023/11/15 01:00:26;;;;;;;7.70;3.50;;;;;;;8.97;66.68;99117.27;106335;1256;60664;-54
2023/11/15 01:02:58;;;;;;;6.80;1.70;;;;;;;9.02;66.56;99118.42;105564;1258;65822;-54
2023/11/15 01:05:28;;;;;;;6.70;3.60;;;;;;;9.03;66.59;99118.11;106186;1252;62200;-53
2023/11/15 01:07:55;;;;;;;9.80;4.60;;;;;;;9.00;66.55;99109.16;106011;1254;64107;-55
2023/11/15 01:10:24;;;;;;;5.50;1.60;;;;;;;8.94;66.68;99099.00;105424;1254;60540;-54
2023/11/15 01:12:53;;;;;;;7.70;3.90;;;;;;;8.89;66.71;99097.59;105416;1253;60850;-51
2023/11/15 01:15:21;;;;;;;4.80;1.60;;;;;;;8.83;66.69;99093.91;105849;1256;65023;-52
2023/11/15 01:17:49;;;;;;;9.10;3.70;;;;;;;8.82;66.69;99087.94;105627;1253;61547;-53
2023/11/15 01:20:17;;;;;;;8.40;3.50;;;;;;;8.83;66.67;99084.16;105680;1253;64118;-52
2023/11/15 01:22:44;;;;;;;6.20;2.00;;;;;;;8.85;66.71;99083.44;106346;1253;60572;-50
2023/11/15 01:25:12;;;;;;;9.00;3.80;;;;;;;8.84;66.69;99084.23;105953;1253;60550;-53
2023/11/15 01:27:39;;;;;;;6.10;1.40;;;;;;;8.79;66.82;99082.40;106719;1253;65167;-53
2023/11/15 01:30:08;;;;;;;9.40;4.50;;;;;;;8.76;66.99;99086.69;105923;1253;62663;-51
2023/11/15 01:32:35;;;;;;;4.90;1.50;;;;;;;8.73;66.88;99080.10;106701;1253;64057;-52
2023/11/15 01:35:03;;;;;;;9.50;3.70;;;;;;;8.75;66.86;99080.19;105867;1252;60437;-50
2023/11/15 01:37:30;;;;;;;7.70;3.50;;;;;;;8.78;66.80;99083.02;106780;1253;59328;-53
2023/11/15 01:39:58;;;;;;;8.10;2.50;;;;;;;8.82;66.75;99089.30;105736;1256;65160;-51
2023/11/15 01:42:25;;;;;;;9.10;3.60;;;;;;;8.82;66.73;99087.75;105625;1253;61687;-52
2023/11/15 01:44:52;;;;;;;9.50;3.30;;;;;;;8.78;66.81;99086.85;105539;1257;64050;-54
2023/11/15 01:47:20;;;;;;;3.50;1.00;;;;;;;8.75;66.85;99088.38;105469;1253;60308;-52
2023/11/15 01:49:47;;;;;;;6.00;3.10;;;;;;;8.71;66.85;99088.20;105459;1259;60553;-52
2023/11/15 01:52:14;;;;;;;4.90;1.70;;;;;;;8.68;66.83;99081.14;105529;1258;65240;-50
2023/11/15 01:54:42;;;;;;;7.30;3.50;;;;;;;8.70;66.70;99084.09;105775;1257;61688;-51
2023/11/15 01:57:08;;;;;;;4.50;1.70;;;;;;;8.72;66.57;99083.86;105559;1259;63825;-49
2023/11/15 01:59:35;;;;;;;7.80;3.50;;;;;;;8.74;66.66;99082.30;105870;1253;64055;-52
2023/11/15 02:02:02;;;;;;;8.70;3.20;;;;;;;8.74;66.66;99080.63;105983;1253;59535;-51
2023/11/15 02:04:29;;;;;;;9.20;1.60;;;;;;;8.72;66.81;99084.63;106986;1257;65228;-52
2023/11/15 02:06:56;;;;;;;11.90;3.70;;;;;;;8.69;66.84;99078.59;105398;1253;63288;-51
2023/11/15 02:09:23;;;;;;;4.70;1.40;;;;;;;8.66;66.88;99080.27;106044;1257;64178;-51
2023/11/15 02:11:51;;;;;;;4.80;1.40;;;;;;;8.64;66.81;99080.30;105817;1253;60482;-52
2023/11/15 02:14:18;;;;;;;9.00;3.00;;;;;;;8.63;66.74;99088.27;106353;1253;59308;-51
2023/11/15 02:16:45;;;;;;;4.80;1.50;;;;;;;8.66;66.68;99092.33;105739;1252;65205;-54
2023/11/15 02:19:15;;;;;;;9.50;3.50;;;;;;;8.70;66.58;99097.88;105483;1253;62181;-50
2023/11/15 02:21:42;;;;;;;6.00;1.60;;;;;;;8.71;66.60;99101.47;106579;1254;64005;-51
2023/11/15 02:24:10;;;;;;;6.10;3.40;;;;;;;8.68;66.70;99100.94;106081;1253;60421;-51
2023/11/15 02:26:36;;;;;;;8.40;3.50;;;;;;;8.64;66.73;99104.12;106120;1257;60422;-51
2023/11/15 02:29:05;;;;;;;4.50;1.50;;;;;;;8.59;66.76;99103.00;106453;1252;63704;-51
2023/11/15 02:31:32;;;;;;;7.60;3.40;;;;;;;8.54;66.94;99106.77;106052;1253;61682;-53
2023/11/15 02:33:59;;;;;;;3.90;1.70;;;;;;;8.55;66.97;99107.14;105967;1256;63925;-53
2023/11/15 02:36:28;;;;;;;6.50;3.50;;;;;;;8.61;66.81;99111.55;106809;1253;60542;-51
2023/11/15 02:38:55;;;;;;;5.00;1.90;;;;;;;8.65;66.79;99112.60;105399;1253;60553;-52
2023/11/15 02:41:22;;;;;;;6.80;2.90;;;;;;;8.67;66.92;99113.96;105410;1257;65109;-55
2023/11/15 02:43:50;;;;;;;3.40;1.10;;;;;;;8.66;66.83;99112.28;105382;1253;62415;-52
2023/11/15 02:46:19;;;;;;;9.10;4.10;;;;;;;8.64;66.87;99113.34;105292;1253;64047;-54
2023/11/15 02:48:46;;;;;;;5.90;1.50;;;;;;;8.62;66.84;99116.67;106374;1254;60432;-54
2023/11/15 02:51:13;;;;;;;9.30;3.70;;;;;;;8.65;66.67;99120.89;105745;1257;60346;-54
2023/11/15 02:53:39;;;;;;;3.60;1.40;;;;;;;8.71;66.65;99117.71;105661;1253;63852;-52
2023/11/15 02:56:07;;;;;;;9.00;3.80;;;;;;;8.76;66.60;99115.05;106212;1253;62252;-50
2023/11/15 02:58:34;;;;;;;7.80;1.40;;;;;;;8.78;66.58;99114.52;105959;1253;64209;-54
2023/11/15 03:01:06;;;;;;;6.30;3.20;;;;;;;8.76;66.51;99107.13;105439;1257;60442;-53
2023/11/15 03:03:35;;;;;;;3.50;1.10;;;;;;;8.74;66.50;99100.50;106048;1257;60451;-55
2023/11/15 03:06:03;;;;;;;9.10;3.20;;;;;;;8.78;66.37;99104.33;106232;1256;63966;-55
2023/11/15 03:08:30;;;;;;;3.90;1.20;;;;;;;8.85;66.17;99111.77;105953;1257;60454;-54
2023/11/15 03:10:58;;;;;;;7.60;3.20;;;;;;;8.90;66.16;99114.25;105802;1256;64136;-55
2023/11/15 03:13:25;;;;;;;6.80;3.30;;;;;;;8.92;66.16;99115.13;105373;1253;60536;-52
2023/11/15 03:15:52;;;;;;;4.70;1.80;;;;;;;8.90;66.19;99117.74;106270;1253;60553;-53
2023/11/15 03:18:19;;;;;;;9.80;3.80;;;;;;;8.88;66.12;99116.86;105990;1253;65059;-52
2023/11/15 03:20:46;;;;;;;7.70;3.40;;;;;;;8.87;66.29;99113.48;105758;1253;61976;-53
2023/11/15 03:23:14;;;;;;;3.20;1.10;;;;;;;8.86;66.24;99113.02;106720;1253;72229;-53
2023/11/15 03:25:41;;;;;;;9.60;3.50;;;;;;;8.92;65.99;99116.00;105581;1253;60639;-55
2023/11/15 03:28:08;;;;;;;7.60;3.20;;;;;;;8.99;65.91;99117.45;106009;1253;60358;-57
2023/11/15 03:30:34;;;;;;;3.10;0.70;;;;;;;9.06;65.91;99118.40;105939;1255;74193;-55
2023/11/15 03:33:01;;;;;;;6.70;3.50;;;;;;;9.07;65.78;99115.24;106093;1253;61686;-53
2023/11/15 03:35:29;;;;;;;7.90;3.40;;;;;;;9.07;65.78;99114.06;106630;1257;64527;-54
2023/11/15 03:37:55;;;;;;;3.90;1.40;;;;;;;9.07;65.85;99110.88;105289;1259;60457;-54
2023/11/15 03:40:22;;;;;;;8.90;3.30;;;;;;;9.07;65.78;99116.69;105388;1258;60883;-54
2023/11/15 03:42:50;;;;;;;5.50;1.50;;;;;;;9.08;65.73;99116.58;106464;1257;65204;-54
2023/11/15 03:45:17;;;;;;;8.00;2.90;;;;;;;9.16;65.65;99114.08;105451;1253;61646;-54
2023/11/15 03:47:44;;;;;;;7.90;3.30;;;;;;;9.23;65.56;99116.26;105870;1254;63721;-54
2023/11/15 03:50:11;;;;;;;7.40;3.30;;;;;;;9.26;65.47;99115.83;105600;1253;60522;-53
2023/11/15 03:52:38;;;;;;;4.60;1.60;;;;;;;9.23;65.46;99116.88;106053;1256;60438;-53
2023/11/15 03:55:06;;;;;;;9.00;3.90;;;;;;;9.19;65.44;99120.80;105379;1257;64938;-56
2023/11/15 03:57:33;;;;;;;5.60;1.40;;;;;;;9.14;65.57;99125.00;106041;1257;60936;-54
2023/11/15 04:00:00;;;;;;;8.60;3.80;;;;;;;9.13;65.55;99129.45;105133;1254;64101;-55
2023/11/15 04:02:27;;;;;;;5.60;3.30;;;;;;;9.15;65.47;99135.35;105515;1258;60531;-54
2023/11/15 04:04:55;;;;;;;4.00;1.00;;;;;;;9.16;65.39;99138.96;105462;1259;60643;-56
2023/11/15 04:07:22;;;;;;;7.10;3.20;;;;;;;9.12;65.42;99139.52;105752;1253;63789;-52
2023/11/15 04:09:49;;;;;;;7.30;3.20;;;;;;;9.07;65.51;99138.36;105414;1253;62188;-54
2023/11/15 04:12:17;;;;;;;6.20;1.70;;;;;;;9.02;65.60;99140.39;106348;1253;65162;-54
2023/11/15 04:14:44;;;;;;;11.40;3.80;;;;;;;8.96;65.74;99141.86;105434;1253;60522;-53
2023/11/15 04:17:11;;;;;;;7.90;3.60;;;;;;;8.91;65.73;99144.41;105878;1253;60653;-52
2023/11/15 04:19:38;;;;;;;5.60;1.60;;;;;;;8.92;65.79;99143.95;105472;1253;65185;-54
2023/11/15 04:22:05;;;;;;;8.10;3.60;;;;;;;8.95;65.79;99139.65;106167;1256;62061;-54
2023/11/15 04:24:40;;;;;;;4.60;1.80;;;;;;;8.96;65.78;99138.55;105667;1254;64549;-54
2023/11/15 04:27:07;;;;;;;7.60;4.00;;;;;;;8.93;65.78;99137.25;105864;1253;60457;-54
2023/11/15 04:29:37;;;;;;;4.20;1.80;;;;;;;8.89;65.96;99141.13;105834;1253;60491;-57
2023/11/15 04:32:04;;;;;;;9.20;3.70;;;;;;;8.86;66.03;99142.65;106007;1258;65274;-48
2023/11/15 04:34:31;;;;;;;3.70;1.20;;;;;;;8.81;66.13;99143.75;105479;1256;61503;-50
2023/11/15 04:36:58;;;;;;;11.10;4.20;;;;;;;8.84;66.03;99145.40;106662;1253;63990;-51
2023/11/15 04:39:25;;;;;;;8.50;4.00;;;;;;;8.87;65.87;99147.91;106188;1253;60511;-47
2023/11/15 04:41:52;;;;;;;7.70;4.10;;;;;;;8.88;65.95;99153.75;105636;1253;60537;-48
2023/11/15 04:44:20;;;;;;;5.20;1.70;;;;;;;8.87;65.89;99158.02;106991;1257;65203;-49
2023/11/15 04:46:47;;;;;;;10.10;4.50;;;;;;;8.84;65.91;99159.55;106208;1253;61480;-52
2023/11/15 04:49:14;;;;;;;5.70;2.20;;;;;;;8.80;66.07;99160.98;105954;1253;64019;-53
2023/11/15 04:51:40;;;;;;;15.90;7.80;;;;;;;8.82;66.11;99165.89;107365;1257;60365;-52
2023/11/15 04:54:07;;;;;;;8.00;3.60;;;;;;;8.89;66.00;99167.56;105818;1253;60451;-52
2023/11/15 04:56:35;;;;;;;8.00;4.40;;;;;;;8.95;65.79;99174.52;106019;1253;63937;-54
2023/11/15 04:59:02;;;;;;;8.90;4.80;;;;;;;8.96;65.66;99182.08;106001;1257;61679;-54
2023/11/15 05:01:29;;;;;;;4.40;1.00;;;;;;;8.97;65.59;99182.92;105385;1253;64672;-54
2023/11/15 05:03:55;;;;;;;7.40;4.00;;;;;;;8.97;65.42;99190.23;105451;1253;60403;-52
2023/11/15 05:06:23;;;;;;;4.50;1.80;;;;;;;8.94;65.32;99190.14;105511;1253;60438;-50
2023/11/15 05:08:50;;;;;;;12.50;4.50;;;;;;;8.95;65.14;99189.91;105184;1253;64954;-53
2023/11/15 05:11:17;;;;;;;7.20;2.20;;;;;;;8.97;64.98;99195.09;106871;1257;63881;-49
2023/11/15 05:13:44;;;;;;;11.60;5.40;;;;;;;8.98;65.07;99199.06;105780;1253;63845;-53
2023/11/15 05:16:11;;;;;;;9.10;4.80;;;;;;;8.97;65.12;99198.82;105746;1253;60287;-50
2023/11/15 05:18:38;;;;;;;6.10;2.00;;;;;;;8.97;65.09;99195.15;105282;1254;60553;-52
2023/11/15 05:21:05;;;;;;;7.60;4.60;;;;;;;8.96;65.12;99197.12;106489;1253;65133;-50
2023/11/15 05:23:32;;;;;;;6.90;1.80;;;;;;;8.95;64.93;99200.71;105724;1253;61584;-54
2023/11/15 05:25:59;;;;;;;9.30;4.20;;;;;;;8.98;64.70;99199.03;105317;1259;64017;-51
2023/11/15 05:28:27;;;;;;;5.20;1.30;;;;;;;9.04;64.80;99195.73;106224;1253;60479;-51
2023/11/15 05:30:54;;;;;;;9.20;4.30;;;;;;;9.10;64.70;99194.04;106698;1253;60308;-51
2023/11/15 05:33:21;;;;;;;12.80;4.30;;;;;;;9.13;64.61;99193.51;105696;1257;65203;-53
2023/11/15 05:35:48;;;;;;;5.60;1.30;;;;;;;9.13;64.64;99187.18;105945;1253;61560;-52
2023/11/15 05:38:15;;;;;;;7.90;3.20;;;;;;;9.14;64.57;99188.86;105608;1253;64159;-54
2023/11/15 05:40:43;;;;;;;9.40;3.40;;;;;;;9.12;64.57;99192.13;106683;1253;60435;-63
2023/11/15 05:43:10;;;;;;;3.20;0.90;;;;;;;9.11;64.69;99197.68;106035;1253;60447;-63
2023/11/15 05:45:37;;;;;;;9.60;3.10;;;;;;;9.16;64.49;99192.89;107045;1254;65751;-58
2023/11/15 05:48:04;;;;;;;4.20;1.10;;;;;;;9.24;64.40;99194.95;105219;1257;63361;-59
2023/11/15 05:50:32;;;;;;;8.80;3.70;;;;;;;9.32;64.25;99198.75;107607;1253;64229;-58
2023/11/15 05:52:59;;;;;;;5.40;1.20;;;;;;;9.34;64.23;99197.64;108412;1253;58585;-64
2023/11/15 05:55:26;;;;;;;7.10;3.40;;;;;;;9.34;64.11;99198.49;106296;1253;60488;-59
2023/11/15 05:57:53;;;;;;;7.40;3.40;;;;;;;9.35;64.10;99200.84;106302;1253;64085;-58
2023/11/15 06:00:20;;;;;;;9.50;4.60;;;;;;;9.35;63.90;99205.40;106294;1253;61928;-57
2023/11/15 06:02:48;;;;;;;6.70;2.70;;;;;;;9.34;63.96;99208.84;105956;1254;64162;-58
2023/11/15 06:05:16;;;;;;;10.80;4.00;;;;;;;9.38;63.82;99217.36;106478;1253;60349;-54
2023/11/15 06:07:43;;;;;;;9.20;4.10;;;;;;;9.44;63.81;99210.70;105808;1253;60571;-53
2023/11/15 06:10:11;;;;;;;8.30;3.90;;;;;;;9.46;63.69;99212.63;106003;1253;63915;-55
2023/11/15 06:12:40;;;;;;;8.00;3.50;;;;;;;9.45;63.79;99209.56;106678;1253;61948;-55
2023/11/15 06:15:11;;;;;;;4.00;1.10;;;;;;;9.44;63.89;99211.27;105891;1253;72382;-53
2023/11/15 06:17:41;;;;;;;7.10;3.30;;;;;;;9.41;63.85;99209.81;105750;1253;60858;-54
2023/11/15 06:20:09;;;;;;;4.90;1.50;;;;;;;9.41;63.85;99208.91;107608;1253;60621;-57
2023/11/15 06:22:39;;;;;;;10.00;3.40;;;;;;;9.46;63.73;99207.52;105737;1255;65087;-55
2023/11/15 06:25:07;;;;;;;8.80;3.60;;;;;;;9.53;63.78;99207.77;105797;1258;60530;-54
2023/11/15 06:27:35;;;;;;;9.10;3.50;;;;;;;9.58;63.80;99208.90;109281;1253;62666;-54
2023/11/15 06:30:02;;;;;;;8.90;3.80;;;;;;;9.61;63.67;99209.05;109242;1253;58506;-57
2023/11/15 06:32:30;;;;;;;7.90;3.60;;;;;;;9.66;63.62;99204.64;109251;1253;58455;-55
2023/11/15 06:34:57;;;;;;;10.70;4.10;;;;;;;9.70;63.61;99204.98;107874;1253;65112;-53
2023/11/15 06:37:24;;;;;;;9.40;4.00;;;;;;;9.76;63.55;99210.51;107037;1257;61706;-56
2023/11/15 06:39:52;;;;;;;5.20;1.50;;;;;;;9.85;63.32;99203.51;106718;1253;64242;-56
2023/11/15 06:42:22;;;;;;;9.50;3.60;;;;;;;9.94;63.04;99202.52;105331;1252;60543;-55
2023/11/15 06:44:49;;;;;;;8.50;3.80;;;;;;;9.97;62.87;99201.66;105449;1253;60552;-55
2023/11/15 06:47:16;;;;;;;9.10;3.90;;;;;;;9.98;62.77;99208.75;105326;1253;63757;-57
2023/11/15 06:49:42;;;;;;;10.80;4.00;;;;;;;10.00;62.71;99210.02;105990;1257;61473;-56
2023/11/15 06:52:09;;;;;;;10.10;4.70;;;;;;;10.00;62.66;99211.00;106394;1254;64803;-58
2023/11/15 06:54:36;;;;;;;5.10;1.90;;;;;;;10.03;62.71;99211.63;105874;1254;60511;-62
2023/11/15 06:57:06;;;;;;;8.30;3.40;;;;;;;10.11;62.57;99211.94;106022;1253;60480;-58
2023/11/15 06:59:33;;;;;;;8.60;3.90;;;;;;;10.20;62.38;99219.06;106773;1256;65236;-56
2023/11/15 07:02:00;;;;;;;9.10;4.10;;;;;;;10.26;62.08;99221.48;106915;1253;61661;-57
2023/11/15 07:04:28;;;;;;;9.20;4.20;;;;;;;10.27;61.97;99222.59;106774;1257;65190;-58
2023/11/15 07:06:55;;;;;;;9.70;4.30;;;;;;;10.27;61.85;99221.73;105466;1253;60326;-57
2023/11/15 07:09:22;;;;;;;9.50;4.20;;;;;;;10.28;61.92;99219.07;107007;1254;60470;-60
2023/11/15 07:11:49;;;;;;;11.00;4.40;;;;;;;10.28;61.96;99216.90;105290;1258;65191;-60
2023/11/15 07:14:16;;;;;;;9.00;3.60;;;;;;;10.35;61.82;99215.48;106834;1257;60678;-58
2023/11/15 07:16:55;;;;;;;9.30;3.80;;;;;;;10.46;61.69;99218.51;105332;1258;63869;-59
2023/11/15 07:19:24;;;;;;;8.70;4.30;;;;;;;10.53;61.73;99219.90;105429;1254;61637;-59
2023/11/15 07:21:54;;;;;;;10.50;4.70;;;;;;;10.59;61.69;99218.96;105663;1253;60531;-62
2023/11/15 07:24:24;;;;;;;9.50;3.90;;;;;;;10.66;61.70;99219.18;105626;1253;65114;-60
2023/11/15 07:26:52;;;;;;;9.50;4.00;;;;;;;10.73;61.27;99223.55;106806;1254;62625;-61
2023/11/15 07:29:19;;;;;;;8.90;3.80;;;;;;;10.76;61.01;99220.62;105698;1253;72570;-60
2023/11/15 07:31:52;;;;;;;8.50;3.90;;;;;;;10.83;60.75;99223.16;105508;1254;60429;-68
2023/11/15 07:34:23;;;;;;;9.30;3.90;;;;;;;10.90;60.31;99220.33;106216;1252;60431;-63
2023/11/15 07:36:53;;;;;;;12.40;4.30;;;;;;;10.90;60.42;99214.30;105557;1253;65581;-65
2023/11/15 07:39:20;;;;;;;12.90;4.10;;;;;;;10.91;60.50;99215.23;106201;1255;61549;-67
2023/11/15 07:41:47;;;;;;;11.60;3.90;;;;;;;10.95;60.64;99216.45;105586;1259;63998;-59
2023/11/15 07:44:17;;;;;;;10.20;4.20;;;;;;;10.99;60.50;99216.31;105722;1258;60503;-59
2023/11/15 07:46:46;;;;;;;12.30;3.50;;;;;;;11.01;60.39;99214.64;106838;1253;60542;-57
2023/11/15 07:49:18;;;;;;;9.30;4.30;;;;;;;11.12;60.36;99216.55;109038;1255;64717;-58
2023/11/15 07:51:45;;;;;;;7.20;3.70;;;;;;;11.26;59.92;99209.36;107001;1257;61636;-58
2023/11/15 07:54:13;;;;;;;10.00;4.20;;;;;;;11.36;59.65;99208.56;106480;1253;64033;-58
2023/11/15 07:56:41;;;;;;;7.80;3.90;;;;;;;11.41;59.61;99207.08;105987;1254;60449;-60
2023/11/15 07:59:08;;;;;;;8.80;4.30;;;;;;;11.48;59.68;99204.57;106023;1253;60432;-59
2023/11/15 08:01:37;;;;;;;9.70;4.10;;;;;;;11.54;59.55;99203.11;105981;1256;65105;-59
2023/11/15 08:04:06;;;;;;;9.90;4.50;;;;;;;11.58;59.44;99204.75;105967;1257;61449;-59
2023/11/15 08:06:33;;;;;;;8.50;4.10;;;;;;;11.60;59.38;99200.41;106063;1254;62761;-60
2023/11/15 08:09:02;;;;;;;9.10;3.90;;;;;;;11.63;59.12;99201.64;107612;1253;59369;-59
2023/11/15 08:11:30;;;;;;;9.50;4.50;;;;;;;11.68;59.00;99202.55;106170;1258;59292;-59
2023/11/15 08:13:59;;;;;;;10.60;4.40;;;;;;;11.74;58.75;99201.59;105981;1253;64933;-59
2023/11/15 08:16:28;;;;;;;7.40;3.90;;;;;;;11.72;58.51;99202.16;106424;1256;60415;-58
2023/11/15 08:18:55;;;;;;;10.20;4.30;;;;;;;11.64;58.54;99199.34;106282;1253;65434;-58
2023/11/15 08:21:22;;;;;;;11.80;3.80;;;;;;;11.58;58.92;99199.41;106066;1254;60454;-59
2023/11/15 08:23:49;;;;;;;8.30;4.00;;;;;;;11.53;59.10;99196.53;105410;1253;60562;-59
2023/11/15 08:26:19;;;;;;;7.50;4.00;;;;;;;11.50;59.20;99195.11;105465;1259;65212;-58
2023/11/15 08:28:47;;;;;;;6.90;3.70;;;;;;;11.50;59.33;99191.39;102891;1253;3790947;-57
2023/11/15 08:42:35;;;;;;;8.40;3.60;;;;;;;11.81;59.05;99194.11;103158;1283;604778;-59
2023/11/15 08:45:06;;;;;;;10.30;4.00;;;;;;;12.43;57.50;99193.52;102760;1272;3439140;-60
2023/11/15 08:47:33;;;;;;;7.90;3.50;;;;;;;12.49;57.46;99195.13;107535;1264;57814;-61
2023/11/15 08:50:01;;;;;;;7.10;3.60;;;;;;;12.51;57.01;99188.30;105186;1266;63850;-58
2023/11/15 08:52:31;;;;;;;11.10;3.90;;;;;;;12.50;57.20;99184.02;104973;1269;62323;-59
2023/11/15 08:55:06;;;;;;;10.70;4.40;;;;;;;12.50;57.19;99176.52;106490;1267;63818;-59
2023/11/15 08:57:34;;;;;;;9.50;3.70;;;;;;;12.51;57.30;99171.93;106432;1266;59260;-59
2023/11/15 09:00:03;;;;;;;14.50;4.50;;;;;;;12.55;57.27;99172.55;106191;1264;58725;-58
2023/11/15 09:02:31;;;;;;;7.80;3.60;;;;;;;12.58;57.27;99175.45;104465;1265;62205;-59
2023/11/15 09:05:08;;;;;;;10.00;4.50;;;;;;;12.59;56.92;99174.23;105615;1267;60648;-60
2023/11/15 09:07:37;;;;;;;9.10;4.50;;;;;;;12.56;56.95;99174.57;106414;1266;63852;-59
2023/11/15 09:10:09;;;;;;;10.00;4.70;;;;;;;12.57;57.09;99166.84;104431;1268;59912;-59
2023/11/15 09:12:37;;;;;;;9.20;4.00;;;;;;;12.68;57.05;99164.23;105021;1266;59720;-61
2023/11/15 09:15:11;;;;;;;9.40;4.00;;;;;;;12.86;56.67;99163.05;106866;1264;75589;-58
2023/11/15 09:17:46;;;;;;;9.90;4.40;;;;;;;12.94;56.38;99155.55;105833;1267;63571;-60
2023/11/15 09:20:19;;;;;;;9.40;4.30;;;;;;;12.98;56.18;99154.33;104389;1269;63791;-61
2023/11/15 09:22:49;;;;;;;10.60;4.60;;;;;;;13.09;56.49;99158.05;105438;1267;62250;-59
2023/11/15 09:25:36;;;;;;;9.90;4.40;;;;;;;13.18;56.33;99156.19;105473;1267;59704;-61
2023/11/15 09:28:03;;;;;;;9.10;4.40;;;;;;;13.28;56.07;99154.80;105210;1266;63306;-61
2023/11/15 09:30:32;;;;;;;11.10;5.00;;;;;;;13.33;55.88;99154.25;105942;1265;60551;-62
2023/11/15 09:33:03;;;;;;;11.30;4.60;;;;;;;13.36;55.63;99157.61;105941;1267;65592;-59
2023/11/15 09:35:31;;;;;;;12.90;4.40;;;;;;;13.34;55.08;99156.26;106046;1267;59755;-59
2023/11/15 09:37:59;;;;;;;11.70;5.30;;;;;;;13.27;55.09;99153.81;105218;1270;60997;-56
2023/11/15 09:40:27;;;;;;;12.30;5.10;;;;;;;13.19;55.11;99150.31;104776;1272;65297;-60
2023/11/15 09:42:56;;;;;;;7.60;4.10;;;;;;;13.10;55.20;99154.98;104961;1264;61380;-60
2023/11/15 09:45:24;;;;;;;9.60;3.70;;;;;;;13.01;55.41;99150.73;104439;1269;64398;-60
2023/11/15 09:47:56;;;;;;;9.60;3.90;;;;;;;13.00;55.69;99149.17;105120;1267;63854;-60
2023/11/15 09:50:26;;;;;;;8.30;4.10;;;;;;;13.06;55.91;99146.27;104728;1266;59647;-57
2023/11/15 09:52:58;;;;;;;10.30;4.50;;;;;;;13.15;56.11;99147.90;104512;1267;74081;-59
2023/11/15 09:55:29;;;;;;;8.00;3.80;;;;;;;13.24;55.65;99148.05;104419;1266;60511;-60
2023/11/15 09:57:57;;;;;;;11.10;5.00;;;;;;;13.29;55.31;99143.60;105216;1267;62960;-59
2023/11/15 10:00:29;;;;;;;12.40;4.40;;;;;;;13.34;55.08;99141.91;104514;1267;59678;-59
2023/11/15 10:02:57;;;;;;;10.00;5.00;;;;;;;13.38;54.77;99140.83;104590;1267;59800;-62
2023/11/15 10:05:29;;;;;;;9.30;4.80;;;;;;;13.45;55.00;99138.09;104538;1267;66765;-58
2023/11/15 10:08:10;;;;;;;11.30;4.10;;;;;;;13.55;54.75;99135.39;104815;1269;60124;-54
2023/11/15 10:10:40;;;;;;;13.10;4.60;;;;;;;13.60;54.41;99131.15;104881;1267;64539;-53
2023/11/15 10:13:16;;;;;;;9.50;4.40;;;;;;;13.62;54.46;99128.86;104799;1269;59772;-54
2023/11/15 10:15:44;;;;;;;8.60;4.10;;;;;;;13.65;54.53;99128.94;105531;1263;59725;-55
2023/11/15 10:18:28;;;;;;;9.10;4.80;;;;;;;13.71;54.47;99127.22;105175;1264;64551;-55
2023/11/15 10:21:13;;;;;;;11.00;4.60;;;;;;;13.75;54.33;99125.19;105411;1262;72441;-57
2023/11/15 10:23:44;;;;;;;8.90;4.90;;;;;;;13.80;54.15;99125.02;105105;1264;64146;-58
2023/11/15 10:26:12;;;;;;;10.20;4.70;;;;;;;13.78;53.90;99124.91;105600;1263;61351;-54
2023/11/15 10:28:40;;;;;;;11.80;4.70;;;;;;;13.73;54.06;99119.81;105130;1266;59713;-57
2023/11/15 10:31:18;;;;;;;7.80;4.00;;;;;;;13.73;54.31;99119.95;108666;1263;63007;-56
2023/11/15 10:33:50;;;;;;;7.90;4.10;;;;;;;13.83;54.16;99117.92;108641;1262;60413;-58
2023/11/15 10:36:20;;;;;;;10.20;3.80;;;;;;;13.93;53.78;99118.95;108648;1263;64310;-56
2023/11/15 10:38:55;;;;;;;9.20;5.00;;;;;;;13.99;53.66;99123.83;108689;1264;57679;-55
2023/11/15 10:41:24;;;;;;;8.80;4.50;;;;;;;14.02;53.58;99126.77;108672;1263;57327;-55
2023/11/15 10:43:54;;;;;;;9.60;4.60;;;;;;;14.05;53.64;99126.59;108744;1262;74078;-55
2023/11/15 10:46:31;;;;;;;9.00;4.50;;;;;;;14.09;53.41;99127.91;108667;1263;60330;-57
2023/11/15 10:49:00;;;;;;;11.00;4.70;;;;;;;14.11;53.32;99123.23;108666;1263;64014;-56
2023/11/15 10:51:47;;;;;;;8.10;4.70;;;;;;;14.12;53.36;99120.28;108639;1262;57820;-52
2023/11/15 10:54:17;;;;;;;12.80;4.30;;;;;;;14.20;53.53;99119.79;108713;1263;58122;-55
2023/11/15 10:56:44;;;;;;;8.50;4.10;;;;;;;14.26;53.36;99119.02;108650;1263;64291;-54
2023/11/15 10:59:15;;;;;;;10.60;4.20;;;;;;;14.29;53.30;99117.84;105906;1268;61367;-57
2023/11/15 11:01:49;;;;;;;9.30;4.10;;;;;;;14.29;53.20;99118.73;104489;1269;63686;-55
2023/11/15 11:04:17;;;;;;;10.10;4.10;;;;;;;14.25;53.07;99122.70;108237;1262;62243;-56
2023/11/15 11:06:58;;;;;;;9.10;4.20;;;;;;;14.22;52.97;99119.84;108565;1261;57860;-54
2023/11/15 11:09:32;;;;;;;13.00;4.40;;;;;;;14.21;53.26;99122.80;106128;1268;65182;-56
2023/11/15 11:12:11;;;;;;;9.50;4.20;;;;;;;14.22;53.55;99122.29;108665;1262;60315;-56
2023/11/15 11:14:40;;;;;;;10.40;4.40;;;;;;;14.23;53.58;99123.30;107133;1264;64119;-56
2023/11/15 11:17:35;;;;;;;9.90;4.30;;;;;;;14.19;53.36;99122.97;105945;1263;59653;-54
2023/11/15 11:20:23;;;;;;;8.80;3.90;;;;;;;14.11;53.52;99128.52;105099;1262;62218;-55
2023/11/15 11:23:30;;;;;;;12.50;4.60;;;;;;;14.03;53.50;99127.06;104665;1264;75250;-55
2023/11/15 11:26:35;;;;;;;9.80;4.40;;;;;;;13.97;53.79;99126.63;104256;1275;60302;-55
2023/11/15 11:29:03;;;;;;;9.50;4.60;;;;;;;13.92;54.03;99122.86;105169;1269;62750;-56
2023/11/15 11:31:31;;;;;;;13.30;4.00;;;;;;;13.90;54.18;99121.42;105274;1264;63852;-56
2023/11/15 11:34:09;;;;;;;9.60;4.40;;;;;;;13.94;54.17;99120.80;104811;1266;62242;-56
2023/11/15 11:37:00;;;;;;;9.10;4.00;;;;;;;14.03;54.22;99121.47;108101;1264;75288;-57
2023/11/15 11:39:46;;;;;;;8.30;4.10;;;;;;;14.07;54.15;99116.84;105511;1266;60353;-58
2023/11/15 11:42:27;;;;;;;10.40;4.20;;;;;;;14.08;53.98;99119.23;105510;1266;64954;-57
2023/11/15 11:44:54;;;;;;;8.60;4.00;;;;;;;14.08;53.95;99118.77;104739;1266;59695;-55
2023/11/15 11:47:23;;;;;;;9.80;4.50;;;;;;;14.07;53.74;99116.28;104761;1266;59724;-57
2023/11/15 11:49:52;;;;;;;9.90;4.10;;;;;;;14.06;53.72;99116.95;104731;1266;66110;-55